M/T Marvel — V7OZ3 — position and weather

sailwx.info

Track history (hours):
 
Tides and Currents Weather Stations Pressure Air Temp Water Temp Dewpoint Dewpoint Depression Visibility Wind Speed Wind Dir Waves Ship Positions

M/T Marvel

Last reported at 2015-Jun-11 22:10 UTC. Time now 2015-Jul-05 17:34 UTC.
Position N 01°14' E 103°56'.
Warning: this ship's position is 23 days out of date.

Length 183 m; draft 11.4 m.

Type: Tanker. MMSI: 538003191.

Date/timePositionNaut miles runAvg speedWind from/ knotsBaromVisibWave heightAir tempDewpointWater temp
2015-Jun-11 22:10N 01°14' E 103°56'4 6.5
2015-Jun-11 21:33N 01°16' E 103°59'  
2015-Jun-06 12:05N 22°25' E 120°07'510.4
2015-Jun-06 11:33N 22°29' E 120°10'8 0.2
2015-Jun-05 03:32N 22°33' E 120°18'3 3.5
2015-Jun-05 02:33N 22°30' E 120°15'1 0.7
2015-Jun-05 01:32N 22°30' E 120°16'0 0.1
2015-Jun-05 00:32N 22°30' E 120°16'0 0.1
2015-Jun-04 23:32N 22°30' E 120°16'0 0.0
2015-Jun-04 22:20N 22°30' E 120°16'0 0.0
2015-Jun-04 21:05N 22°30' E 120°16'0 0.1
2015-Jun-04 19:32N 22°30' E 120°16'0 0.1
2015-Jun-04 18:32N 22°30' E 120°16'0 0.0
2015-Jun-04 17:32N 22°30' E 120°16'0 0.0
2015-Jun-04 16:32N 22°30' E 120°16'0 0.1
2015-Jun-04 15:32N 22°31' E 120°16'2 2.2
2015-Jun-04 14:33N 22°28' E 120°15'  
Track history (hours):
 
Tides and Currents Weather Stations Pressure Air Temp Water Temp Dewpoint Dewpoint Depression Visibility Wind Speed Wind Dir Waves Ship Positions

M/T Marvel

Last reported at 2015-Jun-11 22:10 UTC. Time now 2015-Jul-05 17:34 UTC.
Position N 01°14' E 103°56'.
Warning: this ship's position is 23 days out of date.

Length 183 m; draft 11.4 m.

Type: Tanker. MMSI: 538003191.

Date/timePositionNaut miles runAvg speedWind from/ knotsBaromVisibWave heightAir tempDewpointWater temp
2015-Jun-11 22:10N 01°14' E 103°56'4 6.5
2015-Jun-11 21:33N 01°16' E 103°59'  
2015-Jun-06 12:05N 22°25' E 120°07'510.4
2015-Jun-06 11:33N 22°29' E 120°10'8 0.2
2015-Jun-05 03:32N 22°33' E 120°18'3 3.5
2015-Jun-05 02:33N 22°30' E 120°15'1 0.7
2015-Jun-05 01:32N 22°30' E 120°16'0 0.1
2015-Jun-05 00:32N 22°30' E 120°16'0 0.1
2015-Jun-04 23:32N 22°30' E 120°16'0 0.0
2015-Jun-04 22:20N 22°30' E 120°16'0 0.0
2015-Jun-04 21:05N 22°30' E 120°16'0 0.1
2015-Jun-04 19:32N 22°30' E 120°16'0 0.1
2015-Jun-04 18:32N 22°30' E 120°16'0 0.0
2015-Jun-04 17:32N 22°30' E 120°16'0 0.0
2015-Jun-04 16:32N 22°30' E 120°16'0 0.1
2015-Jun-04 15:32N 22°31' E 120°16'2 2.2
2015-Jun-04 14:33N 22°28' E 120°15'  

Dump ship's entire track history